createdAt,value
2022-08-08T00:00:52.903Z,99.90
2022-08-08T00:03:20.041Z,99.90
2022-08-08T00:05:43.835Z,99.90
2022-08-08T00:08:16.672Z,99.90
2022-08-08T00:10:33.734Z,99.90
2022-08-08T00:12:58.519Z,99.90
2022-08-08T00:15:17.429Z,99.90
2022-08-08T00:17:48.295Z,99.90
2022-08-08T00:20:02.080Z,99.90
2022-08-08T00:22:16.145Z,99.90
2022-08-08T00:24:30.495Z,99.90
2022-08-08T00:26:43.421Z,99.90
2022-08-08T00:28:56.017Z,99.90
2022-08-08T00:32:20.646Z,99.90
2022-08-08T00:34:18.166Z,99.90
2022-08-08T00:36:14.964Z,99.90
2022-08-08T00:38:51.894Z,99.90
2022-08-08T00:41:55.018Z,99.90
2022-08-08T00:44:40.461Z,99.90
2022-08-08T00:47:36.974Z,99.90
2022-08-08T00:50:36.006Z,99.90
2022-08-08T00:53:14.112Z,99.90
2022-08-08T00:56:03.375Z,99.90
2022-08-08T00:58:54.689Z,99.90
2022-08-08T01:01:19.815Z,99.90
2022-08-08T01:04:47.410Z,99.90
2022-08-08T01:07:55.791Z,99.90
2022-08-08T01:10:45.963Z,99.90
2022-08-08T01:13:43.628Z,99.90
2022-08-08T01:16:42.112Z,99.90
2022-08-08T01:19:42.290Z,99.90
2022-08-08T01:22:23.167Z,99.90
2022-08-08T01:24:59.987Z,99.90
2022-08-08T01:27:59.415Z,99.90
2022-08-08T01:30:55.361Z,99.90
2022-08-08T01:34:00.008Z,99.90
2022-08-08T01:37:06.820Z,99.90
2022-08-08T01:39:42.217Z,99.90
2022-08-08T01:42:00.661Z,99.70
2022-08-08T01:44:20.951Z,99.30
2022-08-08T01:47:03.360Z,98.90
2022-08-08T01:49:46.378Z,97.30
2022-08-08T01:53:01.797Z,97.40
2022-08-08T01:55:25.751Z,97.60
2022-08-08T01:57:33.869Z,97.60
2022-08-08T02:00:17.372Z,97.50
2022-08-08T02:02:52.060Z,96.00
2022-08-08T02:05:23.197Z,96.40
2022-08-08T02:07:48.945Z,96.80
2022-08-08T02:10:44.761Z,96.50
2022-08-08T02:13:01.486Z,95.90
2022-08-08T02:15:16.051Z,95.50
2022-08-08T02:17:42.687Z,95.50
2022-08-08T02:20:09.413Z,95.60
2022-08-08T02:22:34.665Z,95.20
2022-08-08T02:25:07.364Z,95.40
2022-08-08T02:27:24.728Z,95.00
2022-08-08T02:29:51.617Z,94.80
2022-08-08T02:32:41.243Z,94.60
2022-08-08T02:35:20.384Z,94.00
2022-08-08T02:37:56.827Z,93.40
2022-08-08T02:40:15.102Z,94.00
2022-08-08T02:44:35.538Z,94.10
2022-08-08T02:45:54.177Z,93.50
2022-08-08T02:48:45.147Z,93.30
2022-08-08T02:51:34.745Z,93.50
2022-08-08T02:54:31.055Z,93.70
2022-08-08T02:57:21.906Z,93.80
2022-08-08T03:00:30.892Z,94.10
2022-08-08T03:03:46.200Z,93.90
2022-08-08T03:06:34.309Z,93.70
2022-08-08T03:09:33.132Z,94.20
2022-08-08T03:12:36.716Z,94.10
2022-08-08T03:15:58.956Z,94.40
2022-08-08T03:17:39.050Z,94.50
2022-08-08T03:20:10.248Z,94.20
2022-08-08T03:22:38.793Z,94.00
2022-08-08T03:24:51.173Z,93.90
2022-08-08T03:27:13.351Z,93.60
2022-08-08T03:29:27.072Z,93.00
2022-08-08T03:32:09.505Z,92.70
2022-08-08T03:34:20.157Z,91.90
2022-08-08T03:36:30.177Z,92.20
2022-08-08T03:38:56.872Z,92.10
2022-08-08T03:42:11.461Z,92.30
2022-08-08T03:43:59.621Z,92.60
2022-08-08T03:46:10.118Z,92.60
2022-08-08T03:48:36.189Z,92.50
2022-08-08T03:50:52.370Z,92.40
2022-08-08T03:53:05.080Z,92.00
2022-08-08T03:55:20.091Z,91.80
2022-08-08T03:58:33.454Z,91.40
2022-08-08T04:00:22.492Z,91.30
2022-08-08T04:02:47.512Z,91.40
2022-08-08T04:04:57.075Z,91.80
2022-08-08T04:07:04.410Z,91.00
2022-08-08T04:09:20.710Z,90.80
2022-08-08T04:11:28.146Z,89.50
2022-08-08T04:14:33.259Z,89.60
2022-08-08T04:16:09.754Z,89.30
2022-08-08T04:18:21.640Z,88.50
2022-08-08T04:20:29.131Z,87.90
2022-08-08T04:22:38.002Z,88.30
2022-08-08T04:24:50.285Z,88.40
2022-08-08T04:26:58.764Z,87.80
2022-08-08T04:29:10.144Z,88.00
2022-08-08T04:31:30.919Z,87.40
2022-08-08T04:33:46.319Z,86.40
2022-08-08T04:35:53.911Z,86.50
2022-08-08T04:38:04.056Z,86.90
2022-08-08T04:40:18.089Z,87.40
2022-08-08T04:42:34.806Z,86.60
2022-08-08T04:44:47.484Z,86.30
2022-08-08T04:46:55.671Z,86.80
2022-08-08T04:49:06.323Z,83.20
2022-08-08T04:51:27.956Z,85.20
2022-08-08T04:54:27.428Z,85.30
2022-08-08T04:56:14.832Z,83.00
2022-08-08T04:58:22.566Z,84.20
2022-08-08T05:00:32.166Z,85.20
2022-08-08T05:02:39.667Z,84.80
2022-08-08T05:04:50.874Z,85.20
2022-08-08T05:06:58.419Z,83.30
2022-08-08T05:09:05.836Z,83.40
2022-08-08T05:11:24.100Z,83.50
2022-08-08T05:13:58.416Z,83.30
2022-08-08T05:16:54.650Z,83.10
2022-08-08T05:18:37.899Z,83.00
2022-08-08T05:20:50.350Z,83.20
2022-08-08T05:22:59.758Z,82.90
2022-08-08T05:25:11.244Z,82.80
2022-08-08T05:27:18.623Z,80.10
2022-08-08T05:29:29.048Z,81.60
2022-08-08T05:32:03.420Z,82.70
2022-08-08T05:34:08.947Z,83.00
2022-08-08T05:36:25.063Z,82.50
2022-08-08T05:38:36.053Z,82.20
2022-08-08T05:40:55.808Z,82.00
2022-08-08T05:43:38.193Z,80.50
2022-08-08T05:45:55.021Z,80.80
2022-08-08T05:48:09.083Z,81.30
2022-08-08T05:50:19.038Z,80.70
2022-08-08T05:52:32.323Z,80.20
2022-08-08T05:54:50.073Z,80.20
2022-08-08T05:57:01.978Z,80.20
2022-08-08T06:00:00.474Z,79.80
2022-08-08T06:01:56.898Z,79.30
2022-08-08T06:04:13.751Z,78.70
2022-08-08T06:06:32.574Z,79.20
2022-08-08T06:08:53.385Z,79.00
2022-08-08T06:11:04.207Z,78.40
2022-08-08T06:13:12.448Z,77.00
2022-08-08T06:15:22.843Z,77.90
2022-08-08T06:18:20.266Z,77.80
2022-08-08T06:20:22.051Z,75.60
2022-08-08T06:22:32.698Z,77.80
2022-08-08T06:24:50.927Z,77.90
2022-08-08T06:27:06.542Z,76.90
2022-08-08T06:29:59.170Z,77.10
2022-08-08T06:32:09.902Z,77.90
2022-08-08T06:34:32.492Z,77.20
2022-08-08T06:36:53.199Z,78.00
2022-08-08T06:39:06.887Z,78.70
2022-08-08T06:41:16.568Z,78.30
2022-08-08T06:43:34.628Z,78.70
2022-08-08T06:45:48.238Z,78.70
2022-08-08T06:48:01.559Z,79.00
2022-08-08T06:50:17.689Z,78.90
2022-08-08T06:52:43.469Z,79.00
2022-08-08T06:54:59.720Z,79.30
2022-08-08T06:57:08.731Z,79.40
2022-08-08T06:59:15.924Z,79.70
2022-08-08T07:02:18.198Z,79.30
2022-08-08T07:04:36.749Z,79.20
2022-08-08T07:06:31.635Z,79.30
2022-08-08T07:08:44.806Z,79.00
2022-08-08T07:10:55.217Z,78.90
2022-08-08T07:13:08.287Z,78.80
2022-08-08T07:15:32.279Z,78.40
2022-08-08T07:18:01.805Z,78.60
2022-08-08T07:20:22.326Z,77.60
2022-08-08T07:22:41.728Z,76.20
2022-08-08T07:24:57.412Z,77.20
2022-08-08T07:27:11.203Z,77.70
2022-08-08T07:29:20.211Z,77.90
2022-08-08T07:31:48.273Z,78.00
2022-08-08T07:33:59.594Z,78.20
2022-08-08T07:36:10.592Z,78.30
2022-08-08T07:38:25.563Z,77.70
2022-08-08T07:40:43.292Z,77.90
2022-08-08T07:42:55.332Z,78.00
2022-08-08T07:45:03.032Z,77.80
2022-08-08T07:47:11.328Z,78.40
2022-08-08T07:49:20.201Z,79.00
2022-08-08T07:51:45.606Z,78.70
2022-08-08T07:54:05.232Z,79.60
2022-08-08T07:56:36.796Z,79.00
2022-08-08T07:58:50.038Z,79.70
2022-08-08T08:01:05.661Z,79.90
2022-08-08T08:03:20.471Z,80.10
2022-08-08T08:05:36.393Z,80.10
2022-08-08T08:07:46.475Z,80.50
2022-08-08T08:10:06.008Z,80.80
2022-08-08T08:12:35.375Z,81.50
2022-08-08T08:14:54.465Z,82.10
2022-08-08T08:17:04.466Z,82.80
2022-08-08T08:19:19.782Z,83.30
2022-08-08T08:21:44.695Z,83.20
2022-08-08T08:24:06.666Z,83.10
2022-08-08T08:26:27.685Z,82.50
2022-08-08T08:28:38.586Z,82.20
2022-08-08T08:30:46.180Z,81.40
2022-08-08T08:32:54.852Z,81.90
2022-08-08T08:35:05.418Z,81.70
2022-08-08T08:37:15.577Z,81.50
2022-08-08T08:39:24.290Z,81.40
2022-08-08T08:41:48.659Z,81.40
2022-08-08T08:44:13.987Z,81.30
2022-08-08T08:46:25.789Z,81.30
2022-08-08T08:48:35.147Z,81.50
2022-08-08T08:50:42.986Z,81.60
2022-08-08T08:53:00.083Z,81.20
2022-08-08T08:55:16.253Z,81.10
2022-08-08T08:57:28.425Z,80.20
2022-08-08T08:59:58.995Z,80.50
2022-08-08T09:02:15.680Z,80.50
2022-08-08T09:04:31.350Z,80.30
2022-08-08T09:06:52.523Z,80.30
2022-08-08T09:09:25.918Z,80.00
2022-08-08T09:11:47.549Z,79.70
2022-08-08T09:14:13.152Z,79.90
2022-08-08T09:16:23.713Z,79.40
2022-08-08T09:18:36.317Z,79.70
2022-08-08T09:22:01.319Z,78.80
2022-08-08T09:23:17.654Z,78.20
2022-08-08T09:25:36.329Z,78.60
2022-08-08T09:27:58.614Z,79.00
2022-08-08T09:30:10.338Z,78.80
2022-08-08T09:32:36.055Z,78.70
2022-08-08T09:34:51.264Z,79.10
2022-08-08T09:37:57.833Z,79.00
2022-08-08T09:39:43.724Z,79.20
2022-08-08T09:42:21.033Z,79.50
2022-08-08T09:44:39.774Z,80.60
2022-08-08T09:46:57.730Z,80.30
2022-08-08T09:49:41.406Z,80.80
2022-08-08T09:52:01.853Z,80.90
2022-08-08T09:54:19.847Z,81.20
2022-08-08T09:56:46.308Z,81.10
2022-08-08T09:59:00.907Z,80.70
2022-08-08T10:02:02.464Z,80.60
2022-08-08T10:03:45.476Z,80.50
2022-08-08T10:05:55.231Z,80.30
2022-08-08T10:08:02.835Z,80.60
2022-08-08T10:10:11.119Z,80.50
2022-08-08T10:12:25.949Z,80.80
2022-08-08T10:14:39.609Z,81.50
2022-08-08T10:16:47.920Z,81.90
2022-08-08T10:19:07.351Z,82.10
2022-08-08T10:21:25.071Z,82.20
2022-08-08T10:23:48.277Z,82.30
2022-08-08T10:26:01.549Z,82.20
2022-08-08T10:28:15.149Z,81.90
2022-08-08T10:31:00.460Z,81.80
2022-08-08T10:32:56.375Z,82.10
2022-08-08T10:35:11.874Z,81.80
2022-08-08T10:37:40.489Z,81.70
2022-08-08T10:39:53.921Z,82.00
2022-08-08T10:42:16.233Z,81.90
2022-08-08T10:44:31.829Z,82.00
2022-08-08T10:46:39.478Z,82.00
2022-08-08T10:48:58.672Z,82.10
2022-08-08T10:51:16.565Z,82.50
2022-08-08T10:53:57.145Z,83.20
2022-08-08T10:56:05.085Z,83.60
2022-08-08T10:58:13.139Z,83.90
2022-08-08T11:00:25.917Z,84.10
2022-08-08T11:02:37.243Z,84.20
2022-08-08T11:04:53.113Z,84.30
2022-08-08T11:07:04.745Z,84.20
2022-08-08T11:09:19.615Z,84.40
2022-08-08T11:11:32.528Z,84.70
2022-08-08T11:13:59.768Z,84.60
2022-08-08T11:16:07.855Z,84.50
2022-08-08T11:18:19.625Z,84.80
2022-08-08T11:20:28.965Z,85.00
2022-08-08T11:22:37.673Z,85.20
2022-08-08T11:24:50.124Z,85.40
2022-08-08T11:27:10.763Z,85.50
2022-08-08T11:29:41.768Z,85.70
2022-08-08T11:31:56.470Z,85.80
2022-08-08T11:34:23.329Z,85.70
2022-08-08T11:36:36.312Z,85.70
2022-08-08T11:38:55.326Z,86.00
2022-08-08T11:41:06.615Z,86.10
2022-08-08T11:43:14.927Z,86.20
2022-08-08T11:45:25.853Z,86.20
2022-08-08T11:47:39.992Z,86.20
2022-08-08T11:50:09.959Z,86.20
2022-08-08T11:52:27.518Z,86.40
2022-08-08T11:54:44.931Z,86.60
2022-08-08T11:57:07.492Z,86.80
2022-08-08T11:59:58.591Z,86.80
2022-08-08T12:01:48.940Z,86.90
2022-08-08T12:04:01.611Z,87.00
2022-08-08T12:06:16.979Z,87.20
2022-08-08T12:08:35.982Z,87.20
2022-08-08T12:10:51.317Z,87.20
2022-08-08T12:13:09.416Z,87.30
2022-08-08T12:15:29.269Z,87.40
2022-08-08T12:17:40.599Z,87.40
2022-08-08T12:20:01.247Z,87.30
2022-08-08T12:22:13.843Z,87.20
2022-08-08T12:24:29.711Z,87.00
2022-08-08T12:26:42.100Z,86.60
2022-08-08T12:29:00.596Z,86.40
2022-08-08T12:31:10.897Z,86.20
2022-08-08T12:33:22.737Z,86.40
2022-08-08T12:35:52.175Z,86.60
2022-08-08T12:38:09.357Z,86.40
2022-08-08T12:40:25.539Z,86.10
2022-08-08T12:42:35.001Z,85.90
2022-08-08T12:45:07.318Z,85.70
2022-08-08T12:47:59.109Z,85.70
2022-08-08T12:50:01.507Z,85.80
2022-08-08T12:52:14.176Z,85.90
2022-08-08T12:54:37.734Z,86.00
2022-08-08T12:56:45.011Z,86.10
2022-08-08T12:58:55.838Z,86.20
2022-08-08T13:01:15.017Z,86.30
2022-08-08T13:03:33.602Z,86.30
2022-08-08T13:06:03.368Z,86.40
2022-08-08T13:08:19.287Z,86.50
2022-08-08T13:10:36.373Z,86.50
2022-08-08T13:12:48.462Z,86.30
2022-08-08T13:14:57.988Z,86.30
2022-08-08T13:17:07.881Z,86.50
2022-08-08T13:19:50.072Z,86.50
2022-08-08T13:22:02.853Z,86.50
2022-08-08T13:24:18.719Z,86.30
2022-08-08T13:26:39.632Z,86.00
2022-08-08T13:28:48.938Z,86.00
2022-08-08T13:30:58.091Z,86.10
2022-08-08T13:33:06.810Z,86.00
2022-08-08T13:35:24.660Z,86.10
2022-08-08T13:38:04.545Z,86.10
2022-08-08T13:40:06.856Z,86.20
2022-08-08T13:42:15.194Z,86.40
2022-08-08T13:44:22.359Z,86.50
2022-08-08T13:46:30.450Z,86.60
2022-08-08T13:48:47.974Z,86.70
2022-08-08T13:51:33.838Z,86.90
2022-08-08T13:53:59.899Z,87.00
2022-08-08T13:56:11.271Z,87.10
2022-08-08T13:58:22.045Z,87.20
2022-08-08T14:00:29.061Z,87.50
2022-08-08T14:02:37.147Z,87.50
2022-08-08T14:05:05.175Z,87.50
2022-08-08T14:07:29.936Z,87.80
2022-08-08T14:10:04.506Z,87.90
2022-08-08T14:12:09.026Z,87.80
2022-08-08T14:14:20.566Z,88.00
2022-08-08T14:16:33.166Z,88.10
2022-08-08T14:18:52.005Z,88.10
2022-08-08T14:21:15.185Z,88.20
2022-08-08T14:24:07.068Z,88.30
2022-08-08T14:26:10.629Z,88.40
2022-08-08T14:28:20.346Z,88.40
2022-08-08T14:30:38.377Z,88.70
2022-08-08T14:32:53.503Z,88.80
2022-08-08T14:35:05.651Z,88.80
2022-08-08T14:37:19.635Z,88.90
2022-08-08T14:39:47.581Z,89.10
2022-08-08T14:42:07.679Z,89.10
2022-08-08T14:44:20.909Z,89.20
2022-08-08T14:46:32.975Z,89.30
2022-08-08T14:48:57.003Z,89.40
2022-08-08T14:51:17.967Z,89.50
2022-08-08T14:53:55.012Z,89.60
2022-08-08T14:56:04.449Z,89.50
2022-08-08T14:58:16.516Z,89.70
2022-08-08T15:00:27.782Z,89.80
2022-08-08T15:02:35.613Z,89.80
2022-08-08T15:04:43.180Z,89.90
2022-08-08T15:06:52.550Z,90.10
2022-08-08T15:09:01.938Z,90.30
2022-08-08T15:11:18.949Z,90.40
2022-08-08T15:13:27.667Z,90.30
2022-08-08T15:16:01.915Z,90.50
2022-08-08T15:18:11.322Z,90.70
2022-08-08T15:20:19.633Z,90.70
2022-08-08T15:22:26.914Z,90.70
2022-08-08T15:24:38.852Z,90.70
2022-08-08T15:26:53.034Z,90.70
2022-08-08T15:29:00.382Z,90.60
2022-08-08T15:31:08.028Z,90.60
2022-08-08T15:33:35.104Z,90.90
2022-08-08T15:35:42.919Z,90.90
2022-08-08T15:37:50.250Z,90.80
2022-08-08T15:39:59.383Z,90.90
2022-08-08T15:42:13.180Z,90.90
2022-08-08T15:44:21.067Z,91.10
2022-08-08T15:46:35.007Z,91.10
2022-08-08T15:48:42.650Z,91.10
2022-08-08T15:51:06.331Z,91.20
2022-08-08T15:53:16.631Z,91.30
2022-08-08T15:55:25.393Z,91.30
2022-08-08T15:57:35.273Z,91.40
2022-08-08T16:00:17.929Z,91.50
2022-08-08T16:02:18.635Z,91.40
2022-08-08T16:04:29.611Z,91.50
2022-08-08T16:06:37.238Z,91.50
2022-08-08T16:13:02.708Z,91.70
2022-08-08T16:13:10.987Z,91.70
2022-08-08T16:13:46.201Z,91.70
2022-08-08T16:15:57.130Z,91.60
2022-08-08T16:18:12.499Z,91.80
2022-08-08T16:20:21.716Z,92.00
2022-08-08T16:22:31.256Z,91.90
2022-08-08T16:24:38.997Z,92.00
2022-08-08T16:26:49.169Z,92.10
2022-08-08T16:28:58.223Z,92.00
2022-08-08T16:31:08.181Z,92.10
2022-08-08T16:33:17.096Z,92.20
2022-08-08T16:35:37.025Z,92.20
2022-08-08T16:37:46.614Z,92.30
2022-08-08T16:40:00.569Z,92.50
2022-08-08T16:42:18.487Z,92.70
2022-08-08T16:44:27.911Z,92.80
2022-08-08T16:46:44.438Z,92.80
2022-08-08T16:48:53.654Z,92.80
2022-08-08T16:51:01.093Z,92.80
2022-08-08T16:55:04.909Z,92.80
2022-08-08T16:55:53.239Z,92.90
2022-08-08T16:58:13.868Z,92.90
2022-08-08T17:00:27.040Z,93.00
2022-08-08T17:02:39.577Z,93.10
2022-08-08T17:04:47.308Z,93.20
2022-08-08T17:06:54.492Z,93.20
2022-08-08T17:09:02.393Z,93.50
2022-08-08T17:11:10.256Z,93.50
2022-08-08T17:13:19.628Z,93.50
2022-08-08T17:15:27.110Z,93.70
2022-08-08T17:18:03.241Z,93.80
2022-08-08T17:20:12.554Z,93.90
2022-08-08T17:22:33.089Z,94.00
2022-08-08T17:24:53.562Z,94.00
2022-08-08T17:27:02.302Z,93.90
2022-08-08T17:29:11.282Z,94.10
2022-08-08T17:31:43.662Z,94.10
2022-08-08T17:34:48.867Z,94.00
2022-08-08T17:36:30.980Z,94.10
2022-08-08T17:38:38.883Z,94.20
2022-08-08T17:40:48.589Z,94.40
2022-08-08T17:42:56.938Z,94.50
2022-08-08T17:45:06.527Z,94.60
2022-08-08T17:47:16.324Z,94.60
2022-08-08T17:49:42.625Z,94.70
2022-08-08T17:51:52.062Z,94.70
2022-08-08T17:54:01.188Z,94.70
2022-08-08T17:56:12.451Z,94.80
2022-08-08T17:58:19.720Z,94.90
2022-08-08T18:00:30.595Z,94.90
2022-08-08T18:02:38.062Z,95.10
2022-08-08T18:04:48.575Z,95.10
2022-08-08T18:06:59.604Z,95.20
2022-08-08T18:09:07.399Z,95.20
2022-08-08T18:11:17.659Z,95.30
2022-08-08T18:13:24.888Z,95.30
2022-08-08T18:15:36.217Z,95.30
2022-08-08T18:18:09.855Z,95.40
2022-08-08T18:20:37.005Z,95.30
2022-08-08T18:22:50.829Z,95.50
2022-08-08T18:24:58.762Z,95.50
2022-08-08T18:27:17.597Z,95.50
2022-08-08T18:29:26.258Z,95.50
2022-08-08T18:31:39.457Z,95.60
2022-08-08T18:34:12.357Z,95.60
2022-08-08T18:36:23.110Z,95.50
2022-08-08T18:38:34.314Z,95.60
2022-08-08T18:40:41.508Z,95.50
2022-08-08T18:42:53.094Z,95.60
2022-08-08T18:45:09.231Z,95.50
2022-08-08T18:47:33.712Z,95.60
2022-08-08T18:49:57.325Z,95.60
2022-08-08T18:52:05.801Z,95.60
2022-08-08T18:54:22.672Z,95.50
2022-08-08T18:56:36.602Z,95.50
2022-08-08T18:58:44.904Z,95.50
2022-08-08T19:00:53.893Z,95.50
2022-08-08T19:03:06.419Z,95.60
2022-08-08T19:05:14.547Z,95.60
2022-08-08T19:07:24.287Z,95.50
2022-08-08T19:09:48.995Z,95.60
2022-08-08T19:12:04.710Z,95.60
2022-08-08T19:14:12.676Z,95.50
2022-08-08T19:16:20.299Z,95.50
2022-08-08T19:18:32.046Z,95.50
2022-08-08T19:20:56.119Z,95.40
2022-08-08T19:23:03.968Z,95.50
2022-08-08T19:26:00.001Z,95.80
2022-08-08T19:27:55.939Z,95.70
2022-08-08T19:30:04.831Z,95.70
2022-08-08T19:32:26.193Z,95.90
2022-08-08T19:34:41.345Z,95.90
2022-08-08T19:36:49.262Z,96.00
2022-08-08T19:38:57.371Z,96.10
2022-08-08T19:41:05.733Z,96.10
2022-08-08T19:43:13.014Z,96.10
2022-08-08T19:45:59.915Z,96.20
2022-08-08T19:47:54.355Z,96.40
2022-08-08T19:50:03.742Z,96.50
2022-08-08T19:52:13.524Z,96.60
2022-08-08T19:54:21.281Z,96.50
2022-08-08T19:56:40.821Z,96.70
2022-08-08T19:58:51.849Z,96.80
2022-08-08T20:00:59.409Z,97.00
2022-08-08T20:03:14.617Z,97.00
2022-08-08T20:06:15.058Z,97.00
2022-08-08T20:08:27.818Z,97.00
2022-08-08T20:10:32.493Z,97.10
2022-08-08T20:12:59.091Z,97.10
2022-08-08T20:15:16.393Z,97.10
2022-08-08T20:17:24.765Z,97.10
2022-08-08T20:19:42.267Z,97.00
2022-08-08T20:21:52.697Z,96.80
2022-08-08T20:24:00.132Z,96.80
2022-08-08T20:26:07.775Z,96.80
2022-08-08T20:28:18.669Z,96.90
2022-08-08T20:30:52.781Z,97.00
2022-08-08T20:32:54.452Z,97.20
2022-08-08T20:35:05.890Z,97.20
2022-08-08T20:37:16.347Z,97.40
2022-08-08T20:39:33.722Z,97.40
2022-08-08T20:41:49.063Z,97.50
2022-08-08T20:44:01.598Z,97.60
2022-08-08T20:46:10.263Z,97.60
2022-08-08T20:48:25.947Z,97.70
2022-08-08T20:50:34.918Z,97.70
2022-08-08T20:52:44.810Z,97.80
2022-08-08T20:54:55.530Z,97.90
2022-08-08T20:57:17.169Z,98.10
2022-08-08T20:59:26.170Z,98.10
2022-08-08T21:01:44.460Z,98.20
2022-08-08T21:04:03.021Z,98.40
2022-08-08T21:06:10.598Z,98.40
2022-08-08T21:08:36.979Z,98.40
2022-08-08T21:10:52.204Z,98.50
2022-08-08T21:13:01.127Z,98.50
2022-08-08T21:15:11.122Z,98.60
2022-08-08T21:17:23.933Z,98.60
2022-08-08T21:19:44.126Z,98.60
2022-08-08T21:21:58.989Z,98.60
2022-08-08T21:24:23.974Z,98.70
2022-08-08T21:26:35.881Z,98.70
2022-08-08T21:28:46.294Z,98.70
2022-08-08T21:30:53.844Z,98.90
2022-08-08T21:33:01.163Z,98.80
2022-08-08T21:36:16.799Z,98.60
2022-08-08T21:37:54.108Z,98.70
2022-08-08T21:40:05.405Z,98.70
2022-08-08T21:42:15.205Z,98.60
2022-08-08T21:44:22.383Z,98.60
2022-08-08T21:48:01.597Z,98.70
2022-08-08T21:48:57.253Z,98.70
2022-08-08T21:51:09.183Z,98.60
2022-08-08T21:54:32.949Z,98.40
2022-08-08T21:56:20.067Z,98.30
2022-08-08T21:58:13.941Z,98.20
2022-08-08T22:00:25.837Z,98.00
2022-08-08T22:02:33.659Z,98.10
2022-08-08T22:04:41.268Z,98.10
2022-08-08T22:06:48.698Z,98.10
2022-08-08T22:08:57.055Z,98.20
2022-08-08T22:11:08.001Z,98.10
2022-08-08T22:13:47.818Z,98.10
2022-08-08T22:16:00.780Z,98.00
2022-08-08T22:18:12.396Z,98.00
2022-08-08T22:20:23.996Z,97.90
2022-08-08T22:22:37.453Z,97.90
2022-08-08T22:24:45.695Z,98.00
2022-08-08T22:27:01.596Z,98.10
2022-08-08T22:29:58.774Z,98.00
2022-08-08T22:31:37.293Z,97.90
2022-08-08T22:34:13.740Z,98.00
2022-08-08T22:36:15.059Z,98.00
2022-08-08T22:38:22.540Z,98.00
2022-08-08T22:40:31.844Z,98.00
2022-08-08T22:42:41.412Z,97.90
2022-08-08T22:44:49.356Z,98.00
2022-08-08T22:46:57.822Z,98.10
2022-08-08T22:49:06.043Z,98.30
2022-08-08T22:51:13.364Z,98.20
2022-08-08T22:54:28.280Z,98.30
2022-08-08T22:55:57.792Z,98.20
2022-08-08T22:58:09.517Z,98.40
2022-08-08T23:00:17.780Z,98.50
2022-08-08T23:02:25.627Z,98.70
2022-08-08T23:04:34.521Z,98.70
2022-08-08T23:06:41.966Z,98.70
2022-08-08T23:08:55.045Z,98.60
2022-08-08T23:11:13.243Z,98.70
2022-08-08T23:13:22.628Z,98.80
2022-08-08T23:16:41.024Z,98.80
2022-08-08T23:18:01.512Z,98.90
2022-08-08T23:20:12.378Z,99.00
2022-08-08T23:22:26.988Z,99.00
2022-08-08T23:24:41.356Z,99.10
2022-08-08T23:26:53.029Z,99.10
2022-08-08T23:29:06.310Z,99.10
2022-08-08T23:31:18.041Z,99.20
2022-08-08T23:34:15.860Z,99.20
2022-08-08T23:36:07.251Z,99.20
2022-08-08T23:38:17.326Z,99.30
2022-08-08T23:40:24.964Z,99.40
2022-08-08T23:42:32.322Z,99.50
2022-08-08T23:44:41.629Z,99.80
2022-08-08T23:49:04.911Z,99.90
2022-08-08T23:49:22.869Z,99.90
2022-08-08T23:52:05.300Z,99.90
2022-08-08T23:54:39.478Z,99.90
2022-08-08T23:56:32.429Z,99.90
2022-08-08T23:58:42.799Z,99.90
